Lynn, Pennsylvania
Current Conditions -  °F | °C
As of 12:54 AM on Tuesday 27 Jan 2015 (Local Time) from KRDG Reporting Station
Overcast Overcast  
Wind Chill: 26°   Ceiling: 5500
Heat Index: 26°   Visibility: 10mi
Dew Point: 17°   Wind: 3mph
Humidity: 69%   Direction: NA
Pressure: 29.72"   Gusts: NA
Location:  40.6329°N, 75.8768°W
Report Text: KRDG 270554Z VRB03KT 10SM OVC055 M03/M08 A2972 RMK AO2 SLP075 60000 T10331083 11033 21056 58012
Loading
Personal Weather Stations






























Interactive Weather Map New forecast layout! Learn more

10-Day Weather Forecast

Advertisements
Track Severe Weather on mobile